Time;durP1;ratioP1;P1;durP2;ratioP2;P2;SDS_P1;SDS_P2;PMS_P1;PMS_P2;Temp;Humidity;BMP_temperature;BMP_pressure;BME280_temperature;BME280_humidity;BME280_pressure;Samples;Min_cycle;Max_cycle;Signal;HPM_P1;HPM_P2
2021/03/04 00:02:25;;;;;;;98.77;56.40;;;;;;;7.90;64.80;101014.28;5062707;28;20481;-76
2021/03/04 00:04:51;;;;;;;94.30;54.07;;;;;;;7.84;64.96;101009.34;5063455;28;20438;-76
2021/03/04 00:07:18;;;;;;;91.63;54.63;;;;;;;7.75;65.47;101002.84;5062453;28;21030;-76
2021/03/04 00:09:44;;;;;;;102.20;58.80;;;;;;;7.78;65.70;101009.75;5062356;28;20448;-76
2021/03/04 00:12:10;;;;;;;106.87;56.17;;;;;;;7.82;65.34;101005.97;5061575;28;20488;-76
2021/03/04 00:14:37;;;;;;;87.17;54.23;;;;;;;7.84;65.46;101012.03;5063337;28;20504;-76
2021/03/04 00:17:03;;;;;;;100.23;56.57;;;;;;;7.75;65.33;101004.66;5062277;28;20501;-76
2021/03/04 00:19:29;;;;;;;104.77;56.17;;;;;;;7.70;65.22;101002.31;5062930;28;20540;-76
2021/03/04 00:21:55;;;;;;;95.13;54.90;;;;;;;7.55;65.97;100996.19;5061875;28;20504;-76
2021/03/04 00:24:22;;;;;;;95.60;56.10;;;;;;;7.35;66.74;101000.19;5062876;28;20448;-76
2021/03/04 00:26:48;;;;;;;100.70;57.43;;;;;;;7.41;66.70;101004.25;5061850;28;20477;-76
2021/03/04 00:29:14;;;;;;;104.20;54.43;;;;;;;7.47;66.36;100990.56;5062793;28;20465;-76
2021/03/04 00:31:41;;;;;;;101.93;57.70;;;;;;;7.53;66.17;100992.78;5061093;28;20556;-76
2021/03/04 00:34:07;;;;;;;96.73;56.10;;;;;;;7.39;66.59;101004.34;5062574;28;20544;-76
2021/03/04 00:36:33;;;;;;;87.90;50.30;;;;;;;7.37;66.52;100990.31;5061697;28;21023;-76
2021/03/04 00:39:00;;;;;;;87.30;51.70;;;;;;;7.42;66.47;101004.16;5063044;28;20464;-76
2021/03/04 00:41:27;;;;;;;94.57;50.87;;;;;;;7.30;66.85;101007.63;5061289;28;20485;-76
2021/03/04 00:43:53;;;;;;;90.53;50.80;;;;;;;7.30;66.68;101004.97;5062831;28;20487;-76
2021/03/04 00:46:19;;;;;;;80.13;46.57;;;;;;;7.31;66.76;101006.69;5061672;28;20515;-76
2021/03/04 00:48:45;;;;;;;86.03;48.20;;;;;;;7.15;67.09;101002.38;5062444;28;20524;-76
2021/03/04 00:51:12;;;;;;;79.27;45.83;;;;;;;7.19;66.84;100992.38;5061082;28;20607;-76
2021/03/04 00:53:38;;;;;;;80.27;48.03;;;;;;;7.17;66.84;100991.63;5062078;28;20489;-76
2021/03/04 00:56:04;;;;;;;76.40;46.43;;;;;;;7.12;66.63;100999.91;5061383;28;20531;-76
2021/03/04 00:58:31;;;;;;;82.13;45.93;;;;;;;7.19;66.31;100999.47;5061033;28;20828;-76
2021/03/04 01:00:57;;;;;;;80.90;46.47;;;;;;;7.21;66.14;100994.94;5061293;28;20551;-76
2021/03/04 01:03:23;;;;;;;76.50;44.07;;;;;;;7.16;66.22;100998.72;5061792;28;20481;-76
2021/03/04 01:05:50;;;;;;;73.03;44.93;;;;;;;7.06;65.80;100992.31;5060845;28;20564;-76
2021/03/04 01:08:16;;;;;;;82.70;47.33;;;;;;;7.03;65.47;100983.69;5062275;28;20460;-76
2021/03/04 01:10:42;;;;;;;79.43;44.00;;;;;;;6.94;65.92;100990.44;5061324;28;20507;-76
2021/03/04 01:13:09;;;;;;;74.87;43.27;;;;;;;6.97;65.46;100984.94;5061749;28;20544;-76
2021/03/04 01:15:36;;;;;;;71.80;41.53;;;;;;;6.73;65.47;100977.56;5061259;28;20957;-76
2021/03/04 01:18:04;;;;;;;75.93;42.03;;;;;;;6.66;65.63;100980.75;5062096;28;20511;-76
2021/03/04 01:20:30;;;;;;;73.37;42.80;;;;;;;6.74;65.32;100981.97;5061179;28;20559;-76
2021/03/04 01:22:57;;;;;;;75.83;43.93;;;;;;;6.70;66.00;100972.47;5061818;28;20448;-76
2021/03/04 01:25:23;;;;;;;75.43;41.77;;;;;;;6.50;66.68;100963.09;5060772;28;20805;-76
2021/03/04 01:27:51;;;;;;;76.20;41.97;;;;;;;6.47;67.40;100971.25;5061386;28;20433;-76
2021/03/04 01:30:20;;;;;;;76.77;42.30;;;;;;;6.49;67.03;100964.06;5061425;28;20490;-76
2021/03/04 01:32:47;;;;;;;72.40;44.80;;;;;;;6.50;67.02;100971.06;5061007;28;20461;-76
2021/03/04 01:35:14;;;;;;;73.33;41.60;;;;;;;6.59;66.51;100969.63;5060705;28;20549;-75
2021/03/04 01:37:40;;;;;;;70.23;40.97;;;;;;;6.45;67.24;100967.00;5061652;28;20429;-76
2021/03/04 01:40:09;;;;;;;70.07;38.63;;;;;;;6.24;68.82;100964.75;5060994;28;20479;-76
2021/03/04 01:42:35;;;;;;;73.37;39.67;;;;;;;6.42;68.73;100954.75;5060931;28;20464;-76
2021/03/04 01:45:01;;;;;;;66.33;39.87;;;;;;;6.53;68.72;100954.94;5060923;28;20479;-76
2021/03/04 01:47:27;;;;;;;79.70;42.17;;;;;;;6.71;68.29;100966.19;5061075;28;20476;-76
2021/03/04 01:49:54;;;;;;;70.23;39.97;;;;;;;6.76;68.59;100965.91;5061233;28;20499;-76
2021/03/04 01:52:21;;;;;;;77.07;43.60;;;;;;;6.71;68.99;100970.66;5059981;28;20587;-76
2021/03/04 01:54:47;;;;;;;87.00;43.40;;;;;;;6.84;69.38;100960.97;5061490;28;20476;-76
2021/03/04 01:57:14;;;;;;;89.67;42.40;;;;;;;6.93;69.15;100948.88;5059495;28;20480;-76
2021/03/04 01:59:40;;;;;;;85.73;42.77;;;;;;;7.13;68.75;100951.09;5061894;28;20492;-76
2021/03/04 02:02:06;;;;;;;93.53;43.33;;;;;;;7.04;68.68;100956.16;5060260;28;20527;-76
2021/03/04 02:04:33;;;;;;;76.30;41.67;;;;;;;7.10;69.18;100947.75;5061302;28;20460;-76
2021/03/04 02:07:03;;;;;;;85.43;41.93;;;;;;;7.11;69.29;100952.97;5060805;28;20551;-76
2021/03/04 02:09:31;;;;;;;116.73;47.13;;;;;;;7.11;69.64;100952.13;5064285;28;20450;-76
2021/03/04 02:12:05;;;;;;;98.27;45.27;;;;;;;7.11;69.46;100952.13;5064007;28;20497;-76
2021/03/04 02:14:33;;;;;;;100.77;47.60;;;;;;;7.00;70.09;100946.69;5064989;28;20486;-76
2021/03/04 02:17:02;;;;;;;108.30;48.70;;;;;;;7.08;70.10;100944.34;5064603;28;20504;-76
2021/03/04 02:19:46;;;;;;;89.33;43.87;;;;;;;7.23;69.85;100948.66;5065150;28;20528;-76
2021/03/04 02:22:53;;;;;;;109.50;47.30;;;;;;;7.22;69.70;100948.75;5063928;28;20941;-76
2021/03/04 02:25:21;;;;;;;106.47;48.43;;;;;;;7.36;69.44;100938.06;5021502;28;20512;-76
2021/03/04 02:27:50;;;;;;;100.00;49.40;;;;;;;6.95;70.66;100929.22;5022634;28;20522;-76
2021/03/04 02:30:19;;;;;;;103.83;45.73;;;;;;;7.13;70.17;100927.16;5021501;28;20527;-76
2021/03/04 02:32:48;;;;;;;104.73;48.30;;;;;;;6.94;70.79;100934.63;5022198;28;20474;-76
2021/03/04 02:35:16;;;;;;;102.47;49.27;;;;;;;6.96;70.82;100927.41;5021393;28;20578;-76
2021/03/04 02:37:44;;;;;;;108.00;46.70;;;;;;;6.91;71.07;100922.41;5022595;28;20826;-76
2021/03/04 02:40:11;;;;;;;103.30;47.17;;;;;;;6.73;71.54;100919.13;5021613;28;20478;-76
2021/03/04 02:42:38;;;;;;;120.07;50.60;;;;;;;6.71;71.84;100915.72;5021667;28;20478;-76
2021/03/04 02:45:07;;;;;;;108.03;45.57;;;;;;;6.70;71.69;100914.03;5021716;28;20473;-75
2021/03/04 02:47:33;;;;;;;95.30;46.30;;;;;;;6.96;70.57;100914.09;5022172;28;21019;-76
2021/03/04 02:49:59;;;;;;;115.43;50.43;;;;;;;6.84;70.97;100909.59;5021611;28;21052;-76
2021/03/04 02:52:26;;;;;;;108.87;49.20;;;;;;;6.75;71.43;100911.91;5020963;28;20487;-76
2021/03/04 02:54:52;;;;;;;98.27;45.57;;;;;;;6.63;71.25;100909.19;5022218;28;20505;-76
2021/03/04 02:57:18;;;;;;;111.10;48.43;;;;;;;6.69;70.96;100909.66;5020883;28;20521;-76
2021/03/04 02:59:45;;;;;;;113.77;47.00;;;;;;;6.90;70.26;100904.72;5024678;28;21016;-76
2021/03/04 03:02:13;;;;;;;102.60;42.80;;;;;;;6.51;70.92;100901.06;5063558;28;20534;-76
2021/03/04 03:04:40;;;;;;;100.80;42.53;;;;;;;6.21;72.02;100898.53;5064512;28;20465;-76
2021/03/04 03:07:08;;;;;;;99.90;44.57;;;;;;;6.26;71.73;100906.22;5063807;28;20565;-76
2021/03/04 03:09:34;;;;;;;97.93;43.50;;;;;;;6.33;71.76;100897.75;5064250;28;20449;-76
2021/03/04 03:12:01;;;;;;;110.97;45.97;;;;;;;6.25;71.89;100896.53;5063483;28;21035;-76
2021/03/04 03:14:28;;;;;;;97.37;45.43;;;;;;;6.32;71.79;100879.28;5064213;28;20476;-76
2021/03/04 03:16:55;;;;;;;114.30;47.37;;;;;;;6.40;71.53;100882.28;5063067;28;20508;-76
2021/03/04 03:19:22;;;;;;;103.80;43.53;;;;;;;6.48;70.69;100876.50;5058772;28;20530;-76
2021/03/04 03:21:48;;;;;;;100.10;44.97;;;;;;;6.65;70.32;100880.72;5060389;28;20500;-76
2021/03/04 03:24:14;;;;;;;100.47;40.97;;;;;;;6.41;70.58;100882.19;5062805;28;20473;-76
2021/03/04 03:26:40;;;;;;;97.73;43.40;;;;;;;6.60;70.01;100881.03;5062562;28;20500;-76
2021/03/04 03:29:06;;;;;;;98.03;46.37;;;;;;;6.61;69.53;100877.41;5061654;28;20521;-76
2021/03/04 03:31:34;;;;;;;85.07;40.27;;;;;;;6.70;69.05;100870.63;5061420;28;20860;-76
2021/03/04 03:34:00;;;;;;;88.70;40.27;;;;;;;6.51;69.70;100873.63;5062646;28;20494;-76
2021/03/04 03:36:29;;;;;;;90.43;42.73;;;;;;;6.44;69.87;100875.84;5061573;28;20563;-76
2021/03/04 03:38:56;;;;;;;85.97;41.57;;;;;;;6.62;69.17;100883.59;5062565;28;20471;-75
2021/03/04 03:41:23;;;;;;;92.90;39.93;;;;;;;6.67;68.95;100879.66;5061890;28;20511;-76
2021/03/04 03:43:49;;;;;;;80.97;38.20;;;;;;;6.79;68.52;100875.38;5062030;28;20508;-76
2021/03/04 03:46:16;;;;;;;77.83;38.40;;;;;;;6.67;68.59;100865.53;5061867;28;20524;-76
2021/03/04 03:48:42;;;;;;;82.87;39.40;;;;;;;6.43;69.00;100873.28;5061434;28;20462;-76
2021/03/04 03:51:09;;;;;;;71.27;36.67;;;;;;;6.50;68.86;100867.47;5060774;28;20528;-76
2021/03/04 03:53:36;;;;;;;75.47;35.93;;;;;;;6.51;68.72;100869.19;5061102;28;20507;-75
2021/03/04 03:56:03;;;;;;;75.43;37.10;;;;;;;6.39;69.05;100862.03;5061319;28;20509;-76
2021/03/04 03:58:29;;;;;;;67.50;36.23;;;;;;;6.51;68.61;100853.25;5060553;28;20538;-75
2021/03/04 04:00:56;;;;;;;84.90;38.63;;;;;;;6.38;69.08;100847.88;5062543;28;21042;-76
2021/03/04 04:03:22;;;;;;;76.43;38.17;;;;;;;6.33;69.16;100842.00;5062558;28;20481;-75
2021/03/04 04:05:49;;;;;;;76.30;38.40;;;;;;;6.56;68.67;100843.19;5062739;28;20469;-75
2021/03/04 04:08:15;;;;;;;81.23;37.87;;;;;;;6.58;68.52;100835.97;5062963;28;20885;-76
2021/03/04 04:10:45;;;;;;;71.10;35.57;;;;;;;6.68;68.73;100836.19;5062284;28;20543;-77
2021/03/04 04:13:11;;;;;;;78.80;38.40;;;;;;;6.56;68.84;100834.34;5063258;28;20477;-76
2021/03/04 04:15:37;;;;;;;71.93;39.10;;;;;;;6.23;69.66;100827.59;5062052;28;20505;-76
2021/03/04 04:18:05;;;;;;;78.20;36.90;;;;;;;6.48;69.16;100826.88;5063451;28;20449;-77
2021/03/04 04:20:31;;;;;;;82.87;37.53;;;;;;;6.65;68.67;100830.22;5062123;28;20453;-76
2021/03/04 04:22:58;;;;;;;80.73;38.27;;;;;;;6.67;68.31;100833.66;5063193;28;20488;-76
2021/03/04 04:25:25;;;;;;;78.07;37.60;;;;;;;6.70;68.34;100821.03;5061870;28;20464;-76
2021/03/04 04:27:53;;;;;;;81.90;39.40;;;;;;;6.57;68.42;100818.31;5062432;28;20457;-76
2021/03/04 04:30:21;;;;;;;80.30;36.90;;;;;;;6.67;68.34;100823.03;5061664;28;20473;-76
2021/03/04 04:32:47;;;;;;;72.40;37.97;;;;;;;6.57;68.59;100838.72;5060848;28;20894;-76
2021/03/04 04:35:15;;;;;;;69.50;37.17;;;;;;;6.30;69.79;100825.41;5062342;28;20536;-76
2021/03/04 04:37:41;;;;;;;69.87;35.90;;;;;;;6.47;69.08;100817.19;5062648;28;20552;-76
2021/03/04 04:40:08;;;;;;;77.37;38.33;;;;;;;6.49;68.79;100814.44;5061757;28;20441;-76
2021/03/04 04:42:34;;;;;;;80.00;38.00;;;;;;;6.42;69.04;100819.31;5061856;28;21047;-76
2021/03/04 04:45:01;;;;;;;81.03;36.90;;;;;;;6.37;69.50;100811.66;5062831;28;20432;-76
2021/03/04 04:47:28;;;;;;;86.57;38.00;;;;;;;6.54;68.80;100815.00;5062047;28;20548;-75
2021/03/04 04:49:54;;;;;;;75.33;37.97;;;;;;;6.45;68.86;100811.13;5062007;28;20459;-76
2021/03/04 04:52:20;;;;;;;86.03;36.37;;;;;;;6.52;68.78;100803.63;5061272;28;20473;-76
2021/03/04 04:54:46;;;;;;;79.63;37.80;;;;;;;6.50;68.81;100802.88;5062690;28;20511;-76
2021/03/04 04:57:13;;;;;;;91.17;39.40;;;;;;;6.31;69.34;100795.25;5060809;28;20497;-76
2021/03/04 04:59:39;;;;;;;84.80;39.70;;;;;;;6.36;68.94;100793.16;5061603;28;20955;-76
2021/03/04 05:02:06;;;;;;;96.30;39.60;;;;;;;6.56;68.53;100790.06;5061707;28;20472;-76
2021/03/04 05:04:32;;;;;;;88.87;39.60;;;;;;;6.73;68.07;100774.78;5062205;28;20465;-76
2021/03/04 05:06:58;;;;;;;88.40;41.47;;;;;;;6.82;67.66;100781.28;5061481;28;21142;-76
2021/03/04 05:09:24;;;;;;;101.63;43.17;;;;;;;6.95;67.20;100785.66;5062146;28;21130;-76
2021/03/04 05:11:51;;;;;;;94.57;42.80;;;;;;;6.91;67.66;100783.31;5060584;28;20515;-76
2021/03/04 05:14:17;;;;;;;87.73;38.33;;;;;;;6.68;68.09;100783.03;5061925;28;20484;-76
2021/03/04 05:16:43;;;;;;;90.97;41.93;;;;;;;6.79;67.67;100785.84;5061406;28;20499;-76
2021/03/04 05:19:10;;;;;;;91.07;39.43;;;;;;;6.60;67.73;100778.25;5061370;28;20456;-76
2021/03/04 05:21:36;;;;;;;97.23;40.50;;;;;;;6.67;67.75;100778.69;5060898;28;20499;-76
2021/03/04 05:24:03;;;;;;;93.33;40.20;;;;;;;6.30;68.75;100789.09;5062064;28;20452;-76
2021/03/04 05:26:29;;;;;;;97.80;38.77;;;;;;;6.43;69.08;100790.97;5061048;28;20496;-77
2021/03/04 05:28:55;;;;;;;94.80;42.60;;;;;;;6.60;68.41;100793.34;5060933;28;20480;-76
2021/03/04 05:31:22;;;;;;;95.00;40.03;;;;;;;6.51;68.91;100789.50;5060392;28;20469;-76
2021/03/04 05:33:48;;;;;;;100.17;44.83;;;;;;;6.53;68.73;100790.25;5062030;28;20489;-76
2021/03/04 05:36:15;;;;;;;103.50;43.13;;;;;;;6.44;69.18;100785.56;5061274;28;20491;-76
2021/03/04 05:38:41;;;;;;;111.90;43.47;;;;;;;6.52;68.95;100777.06;5061014;28;20449;-76
2021/03/04 05:41:08;;;;;;;110.27;43.13;;;;;;;6.27;69.70;100769.84;5060499;28;20500;-76
2021/03/04 05:43:36;;;;;;;100.97;41.47;;;;;;;6.12;70.36;100769.88;5060109;28;20456;-76
2021/03/04 05:46:02;;;;;;;107.00;45.30;;;;;;;6.38;69.51;100759.38;5060897;28;20493;-76
2021/03/04 05:48:29;;;;;;;98.70;42.83;;;;;;;6.57;68.75;100762.50;5061497;28;20444;-76
2021/03/04 05:50:58;;;;;;;107.53;44.03;;;;;;;6.66;69.06;100762.84;5060005;28;20484;-76
2021/03/04 05:53:25;;;;;;;99.43;41.57;;;;;;;6.92;67.98;100764.59;5061594;28;21033;-75
2021/03/04 05:55:52;;;;;;;99.83;42.50;;;;;;;6.94;67.41;100756.53;5060911;28;20473;-76
2021/03/04 05:58:19;;;;;;;108.73;46.17;;;;;;;6.60;68.69;100742.88;5060582;28;20487;-76
2021/03/04 06:00:45;;;;;;;104.90;43.03;;;;;;;6.28;70.61;100740.53;5060269;28;20471;-76
2021/03/04 06:03:12;;;;;;;107.43;43.63;;;;;;;6.38;69.67;100736.31;5061080;28;20509;-77
2021/03/04 06:05:39;;;;;;;110.70;43.17;;;;;;;6.56;68.69;100744.00;5060397;28;20562;-76
2021/03/04 06:08:07;;;;;;;108.23;43.33;;;;;;;6.60;68.76;100742.88;5061247;28;20473;-76
2021/03/04 06:10:34;;;;;;;103.60;40.80;;;;;;;6.62;68.40;100737.47;5060281;28;21089;-76
2021/03/04 06:13:01;;;;;;;93.13;40.40;;;;;;;6.59;68.58;100734.03;5060987;28;20464;-76
2021/03/04 06:15:28;;;;;;;98.33;41.87;;;;;;;6.64;68.67;100746.19;5061317;28;20500;-76
2021/03/04 06:17:54;;;;;;;104.27;40.40;;;;;;;6.72;68.08;100742.06;5060558;28;20476;-76
2021/03/04 06:20:21;;;;;;;102.40;39.53;;;;;;;6.72;67.94;100750.03;5060456;28;20496;-76
2021/03/04 06:22:48;;;;;;;87.90;39.60;;;;;;;6.72;68.02;100747.38;5060922;28;20503;-76
2021/03/04 06:25:15;;;;;;;102.60;40.10;;;;;;;6.77;67.64;100755.00;5060144;28;20437;-76
2021/03/04 06:27:43;;;;;;;92.23;39.80;;;;;;;6.81;67.54;100761.84;5060129;28;20564;-75
2021/03/04 06:30:11;;;;;;;77.03;34.80;;;;;;;6.55;68.00;100760.94;5060012;28;20487;-75
2021/03/04 06:32:37;;;;;;;85.10;36.00;;;;;;;6.60;67.87;100757.00;5061473;28;20484;-75
2021/03/04 06:35:07;;;;;;;94.10;37.77;;;;;;;6.86;67.40;100745.59;5060651;28;20495;-76
2021/03/04 06:37:35;;;;;;;90.40;36.50;;;;;;;6.79;67.21;100746.00;5060982;28;20457;-75
2021/03/04 06:40:01;;;;;;;91.37;38.13;;;;;;;6.92;66.76;100753.97;5060714;28;20464;-74
2021/03/04 06:42:38;;;;;;;81.73;34.93;;;;;;;6.89;66.90;100756.84;5060018;28;20537;-75
2021/03/04 06:45:07;;;;;;;81.93;35.30;;;;;;;7.13;66.29;100750.78;5059898;28;20469;-74
2021/03/04 06:47:33;;;;;;;74.60;34.60;;;;;;;6.90;66.96;100763.84;5060300;28;20456;-75
2021/03/04 06:49:59;;;;;;;89.23;36.30;;;;;;;6.73;67.35;100767.66;5060424;28;20892;-75
2021/03/04 06:52:27;;;;;;;84.17;35.20;;;;;;;6.64;67.72;100767.44;5059752;28;20556;-75
2021/03/04 06:54:53;;;;;;;107.80;40.00;;;;;;;6.47;68.51;100768.53;5060886;28;20508;-75
2021/03/04 06:57:21;;;;;;;95.60;37.53;;;;;;;6.58;68.46;100771.34;5063352;28;20504;-75
2021/03/04 06:59:47;;;;;;;106.57;41.90;;;;;;;6.52;68.67;100774.41;5064444;28;20441;-75
2021/03/04 07:02:24;;;;;;;103.83;38.30;;;;;;;6.70;68.36;100767.00;5064112;28;20476;-74
2021/03/04 07:04:54;;;;;;;108.63;39.40;;;;;;;6.64;68.55;100770.94;5064526;28;20494;-75
2021/03/04 07:07:22;;;;;;;112.77;41.33;;;;;;;6.65;68.54;100767.34;5063926;28;20468;-75
2021/03/04 07:09:49;;;;;;;111.20;38.13;;;;;;;6.30;69.54;100761.69;5064634;28;20480;-75
2021/03/04 07:12:16;;;;;;;103.60;35.73;;;;;;;6.08;70.58;100746.31;5063037;28;20500;-75
2021/03/04 07:14:43;;;;;;;110.83;40.80;;;;;;;6.09;70.48;100748.84;5064560;28;20481;-75
2021/03/04 07:17:09;;;;;;;120.47;40.67;;;;;;;6.35;69.75;100747.16;5061829;28;20503;-74
2021/03/04 07:19:37;;;;;;;118.20;40.00;;;;;;;6.26;69.78;100753.06;5062553;28;20544;-74
2021/03/04 07:22:04;;;;;;;112.33;37.00;;;;;;;6.28;69.75;100745.84;5062847;28;20503;-75
2021/03/04 07:24:30;;;;;;;102.83;40.20;;;;;;;6.44;69.26;100736.88;5063810;28;20445;-75
2021/03/04 07:26:57;;;;;;;93.90;35.83;;;;;;;6.27;69.35;100741.50;5063366;28;20475;-74
2021/03/04 07:29:23;;;;;;;94.40;36.47;;;;;;;6.17;70.00;100737.75;5059129;28;20449;-75
2021/03/04 07:31:50;;;;;;;96.17;34.87;;;;;;;6.05;70.41;100736.72;5062364;28;20481;-74
2021/03/04 07:34:17;;;;;;;105.93;36.50;;;;;;;6.39;69.26;100748.66;5063416;28;21084;-74
2021/03/04 07:36:46;;;;;;;91.90;34.13;;;;;;;6.53;68.92;100739.78;5062840;28;20491;-74
2021/03/04 07:39:13;;;;;;;103.20;39.27;;;;;;;6.51;68.78;100746.13;5064177;28;20440;-74
2021/03/04 07:41:41;;;;;;;102.03;35.27;;;;;;;6.75;67.76;100754.25;5062912;28;20484;-74
2021/03/04 07:44:08;;;;;;;85.30;32.00;;;;;;;6.64;67.86;100744.38;5062910;28;20457;-75
2021/03/04 07:46:36;;;;;;;78.10;30.70;;;;;;;6.54;67.75;100754.75;5063115;28;20546;-75
2021/03/04 07:49:04;;;;;;;81.80;34.00;;;;;;;6.59;67.73;100749.13;5063530;28;20456;-75
2021/03/04 07:51:41;;;;;;;75.30;30.73;;;;;;;6.47;68.28;100745.47;5062758;28;20844;-76
2021/03/04 07:54:08;;;;;;;71.00;29.17;;;;;;;6.58;67.75;100755.41;5062703;28;20945;-75
2021/03/04 07:56:35;;;;;;;65.87;27.47;;;;;;;6.24;68.38;100754.13;5062585;28;20477;-74
2021/03/04 07:59:08;;;;;;;61.10;26.60;;;;;;;6.03;69.06;100750.09;5061764;28;20629;-74
2021/03/04 08:01:34;;;;;;;66.93;28.17;;;;;;;5.86;69.63;100747.66;5062924;28;20473;-74
2021/03/04 08:04:01;;;;;;;68.40;29.73;;;;;;;6.16;68.56;100744.88;5062981;28;20477;-74
2021/03/04 08:06:28;;;;;;;68.07;27.33;;;;;;;5.91;69.13;100750.88;5061788;28;20481;-74
2021/03/04 08:08:54;;;;;;;60.83;25.90;;;;;;;6.27;68.54;100745.94;5063416;28;20432;-74
2021/03/04 08:11:26;;;;;;;65.87;24.77;;;;;;;6.35;67.48;100743.63;5062478;28;20499;-75
2021/03/04 08:13:52;;;;;;;69.13;26.50;;;;;;;6.09;68.52;100748.00;5062565;28;20452;-74
2021/03/04 08:16:19;;;;;;;65.33;26.47;;;;;;;6.73;67.16;100750.88;5062232;28;20476;-74
2021/03/04 08:18:52;;;;;;;72.47;26.60;;;;;;;6.44;67.31;100745.72;5062429;28;20456;-75
2021/03/04 08:21:19;;;;;;;60.90;25.07;;;;;;;6.52;67.27;100745.19;5062677;28;20507;-74
2021/03/04 08:23:45;;;;;;;69.20;28.20;;;;;;;6.67;66.36;100730.03;5062355;28;20606;-75
2021/03/04 08:26:21;;;;;;;68.47;27.27;;;;;;;7.06;64.87;100734.41;5062115;28;20547;-75
2021/03/04 08:28:48;;;;;;;60.97;27.07;;;;;;;7.30;64.48;100731.00;5062798;28;20736;-75
2021/03/04 08:31:15;;;;;;;65.73;25.70;;;;;;;7.41;63.96;100728.44;5061488;28;20829;-75
2021/03/04 08:33:42;;;;;;;62.60;26.57;;;;;;;7.26;64.08;100737.50;5062105;28;20531;-75
2021/03/04 08:36:08;;;;;;;64.13;26.93;;;;;;;7.17;64.66;100736.34;5060779;28;20544;-75
2021/03/04 08:38:39;;;;;;;78.10;28.30;;;;;;;7.54;63.99;100747.91;5062843;28;20491;-75
2021/03/04 08:41:05;;;;;;;72.17;26.07;;;;;;;7.03;65.17;100725.78;5059965;28;20498;-74
2021/03/04 08:43:31;;;;;;;82.77;27.47;;;;;;;6.42;67.39;100729.00;5062522;28;20471;-74
2021/03/04 08:46:00;;;;;;;81.43;29.53;;;;;;;6.73;66.93;100733.09;5061503;28;20476;-74
2021/03/04 08:48:26;;;;;;;71.83;29.57;;;;;;;6.96;66.38;100733.34;5061582;28;20827;-75
2021/03/04 08:50:53;;;;;;;74.73;29.90;;;;;;;6.78;66.71;100738.13;5061783;28;20484;-73
2021/03/04 08:53:20;;;;;;;82.70;26.83;;;;;;;6.63;67.80;100747.13;5061738;28;20510;-74
2021/03/04 08:55:48;;;;;;;88.93;31.30;;;;;;;6.65;67.55;100745.19;5061833;28;20481;-74
2021/03/04 08:58:14;;;;;;;74.03;30.00;;;;;;;6.68;67.26;100742.34;5061049;28;20483;-74
2021/03/04 09:00:46;;;;;;;84.83;30.13;;;;;;;6.83;66.77;100740.47;5061440;28;20715;-75
2021/03/04 09:03:13;;;;;;;79.23;29.17;;;;;;;6.98;65.86;100742.94;5061835;28;20452;-74
2021/03/04 09:05:40;;;;;;;69.53;27.27;;;;;;;7.10;65.23;100749.22;5061474;28;20466;-75
2021/03/04 09:08:07;;;;;;;72.73;26.53;;;;;;;7.30;64.93;100750.47;5061888;28;20421;-75
2021/03/04 09:10:55;;;;;;;64.23;25.90;;;;;;;7.21;65.02;100750.28;5061291;28;20487;-75
2021/03/04 09:13:22;;;;;;;72.63;25.60;;;;;;;6.98;66.10;100753.56;5060065;28;20484;-75
2021/03/04 09:15:51;;;;;;;76.53;26.90;;;;;;;6.95;66.25;100753.75;5061087;28;20512;-75
2021/03/04 09:18:20;;;;;;;63.80;26.13;;;;;;;7.06;65.74;100760.16;5059838;28;20445;-74
2021/03/04 09:20:47;;;;;;;70.90;28.00;;;;;;;6.41;67.13;100749.41;5061469;28;20548;-74
2021/03/04 09:23:14;;;;;;;60.93;23.53;;;;;;;6.58;66.53;100752.75;5061826;28;20449;-74
2021/03/04 09:25:40;;;;;;;54.97;24.33;;;;;;;6.76;66.28;100745.34;5061079;28;20522;-74
2021/03/04 09:28:13;;;;;;;55.80;23.77;;;;;;;6.82;65.28;100739.59;5060762;28;20896;-74
2021/03/04 09:30:39;;;;;;;59.03;24.10;;;;;;;6.65;65.89;100747.84;5061300;28;20483;-74
2021/03/04 09:33:16;;;;;;;67.17;23.67;;;;;;;6.80;65.72;100749.50;5061385;28;20541;-74
2021/03/04 09:35:56;;;;;;;61.80;25.27;;;;;;;6.74;66.08;100740.13;5060194;28;20543;-74
2021/03/04 09:38:23;;;;;;;64.23;24.67;;;;;;;7.07;65.50;100735.28;5061707;28;20433;-74
2021/03/04 09:40:49;;;;;;;68.40;27.20;;;;;;;7.12;65.07;100731.34;5060793;28;20503;-74
2021/03/04 09:43:16;;;;;;;71.17;28.33;;;;;;;6.66;66.75;100725.66;5061152;28;20456;-74
2021/03/04 09:45:46;;;;;;;75.43;26.60;;;;;;;6.68;66.51;100723.75;5060514;28;20478;-75
2021/03/04 09:48:12;;;;;;;68.63;26.33;;;;;;;7.03;66.14;100718.69;5061584;28;20433;-74
2021/03/04 09:50:39;;;;;;;65.57;25.70;;;;;;;7.08;65.92;100724.53;5060998;28;20464;-74
2021/03/04 09:53:07;;;;;;;63.33;25.53;;;;;;;7.40;65.02;100726.75;5060768;28;20984;-74
2021/03/04 09:55:36;;;;;;;71.17;25.10;;;;;;;7.26;65.15;100729.53;5040564;28;20472;-75
2021/03/04 09:58:11;;;;;;;73.03;26.77;;;;;;;7.14;65.88;100736.56;5040275;28;20565;-74
2021/03/04 10:00:38;;;;;;;67.73;26.37;;;;;;;7.37;65.37;100740.25;5040695;28;21059;-74
2021/03/04 10:03:09;;;;;;;68.27;26.93;;;;;;;6.82;67.15;100736.94;5042188;28;20472;-74
2021/03/04 10:05:44;;;;;;;65.20;23.23;;;;;;;6.67;67.70;100730.88;5060688;28;20467;-74
2021/03/04 10:08:12;;;;;;;55.63;24.00;;;;;;;6.25;68.98;100734.56;5060847;28;20455;-74
2021/03/04 10:10:38;;;;;;;63.27;26.30;;;;;;;6.44;68.55;100742.19;5060612;28;20464;-74
2021/03/04 10:13:05;;;;;;;63.40;25.33;;;;;;;6.41;68.45;100733.47;5061059;28;20449;-74
2021/03/04 10:15:33;;;;;;;65.67;24.97;;;;;;;6.40;68.16;100739.72;5059676;28;20550;-74
2021/03/04 10:18:00;;;;;;;59.90;24.20;;;;;;;6.20;69.03;100737.56;5055157;28;20455;-74
2021/03/04 10:20:27;;;;;;;62.77;23.00;;;;;;;6.58;68.04;100734.16;5039680;28;20469;-74
2021/03/04 10:22:53;;;;;;;53.33;21.53;;;;;;;6.73;67.48;100734.91;5040887;28;20980;-75
2021/03/04 10:25:20;;;;;;;51.97;21.97;;;;;;;6.83;66.72;100727.19;5058819;28;20445;-75
2021/03/04 10:27:47;;;;;;;59.77;22.60;;;;;;;6.50;67.83;100733.81;5060743;28;20949;-74
2021/03/04 10:30:14;;;;;;;54.50;22.10;;;;;;;6.09;69.17;100734.72;5062156;28;20429;-74
2021/03/04 10:32:41;;;;;;;46.40;21.23;;;;;;;6.20;68.88;100737.56;5059777;28;20805;-74
2021/03/04 10:35:09;;;;;;;48.03;19.80;;;;;;;6.05;69.24;100730.59;5060239;28;20528;-75
2021/03/04 10:37:36;;;;;;;55.03;20.07;;;;;;;5.99;69.44;100724.72;5063572;28;20524;-76
2021/03/04 10:40:04;;;;;;;47.53;20.13;;;;;;;6.20;68.62;100722.47;5065396;28;20455;-75
2021/03/04 10:42:31;;;;;;;51.63;20.47;;;;;;;5.85;69.54;100728.22;5064013;28;20472;-76
2021/03/04 10:44:59;;;;;;;51.70;21.17;;;;;;;6.00;69.11;100728.22;5064804;28;21512;-75
2021/03/04 10:47:26;;;;;;;43.50;17.70;;;;;;;6.18;68.31;100719.06;5064223;28;20476;-76
2021/03/04 10:49:52;;;;;;;49.97;21.37;;;;;;;6.22;68.38;100722.38;5064534;28;20935;-75
2021/03/04 10:52:19;;;;;;;52.07;20.63;;;;;;;5.88;69.22;100729.81;5063977;28;20512;-75
2021/03/04 10:54:45;;;;;;;46.60;19.80;;;;;;;6.13;68.38;100730.94;5064856;28;20825;-75
2021/03/04 10:57:11;;;;;;;41.17;18.67;;;;;;;6.12;68.64;100732.72;5063101;28;20603;-75
2021/03/04 10:59:39;;;;;;;49.40;20.70;;;;;;;6.02;68.99;100729.84;5064326;28;20508;-75
2021/03/04 11:02:05;;;;;;;51.83;21.73;;;;;;;6.45;67.65;100733.28;5064387;28;20488;-75
2021/03/04 11:04:31;;;;;;;48.40;20.60;;;;;;;6.49;66.87;100738.28;5064047;28;21027;-74
2021/03/04 11:06:58;;;;;;;45.30;20.27;;;;;;;6.73;66.37;100726.94;5063566;28;20472;-74
2021/03/04 11:09:24;;;;;;;47.93;21.60;;;;;;;6.74;66.48;100734.81;5064200;28;20456;-75
2021/03/04 11:11:50;;;;;;;43.40;17.27;;;;;;;6.44;66.72;100723.59;5063594;28;20478;-75
2021/03/04 11:14:17;;;;;;;36.00;17.40;;;;;;;6.50;66.65;100721.38;5063792;28;20991;-74
2021/03/04 11:16:44;;;;;;;39.93;19.03;;;;;;;6.20;67.58;100717.16;5063268;28;20487;-74